Terminal Aerodrome Forecast
Issued by NWS

Home | Current Version | Previous Version | Text Only | Print | Product List | Glossary On
Versions: 1 2 3 4 5 6 7 8 9 10 11 12 13 14 15 16 17 18 19 20 21 22 23 24 25 26
000
FTUS45 KBOU 301459 AAB
TAFAPA
TAF AMD
KAPA 301459Z 3015/0112 34010KT 5SM -SN BR BKN006 OVC011
      TEMPO 3016/3017 2SM -SN BR OVC005
     FM301700 36013KT P6SM VCSH SCT012 OVC025
      TEMPO 3018/3022 4SM -SNRA BKN012
     FM302200 01015G25KT P6SM VCSH SCT010 OVC020
      TEMPO 3022/0102 2SM -SN BR FEW007 OVC010
     FM010600 34008KT P6SM SCT004 OVC010 PROB30 0106/0112 3SM -SN BR
      BKN007=

USA.gov is the U.S. government's official web portal to all federal, state and local government web resources and services.